Terminal Aerodrome Forecast
Issued by NWS

Home | Current Version | Previous Version | Text Only | Print | Product List | Glossary On
Versions: 1 2 3 4 5 6 7 8 9 10 11 12 13 14 15 16 17 18 19 20 21 22 23
000
FTUS43 KDLH 041403 AAA
TAFBRD
TAF AMD
KBRD 041403Z 0414/0512 15008KT 2SM -SHSN BR OVC005
     FM041600 16008KT 2SM -SN BR OVC006
      TEMPO 0417/0419 1SM -SN BR
     FM042000 21010KT 3SM -SHSN BR OVC010
     FM042300 23008KT 5SM BR VCSH SCT007 OVC010
     FM051000 22007KT 6SM BR SCT010 OVC018=

USA.gov is the U.S. government's official web portal to all federal, state and local government web resources and services.